createdAt,value
2022-08-22T00:02:45.812Z,1.75
2022-08-22T00:02:55.895Z,2.70
2022-08-22T00:03:00.776Z,3.55
2022-08-22T00:06:08.789Z,2.78
2022-08-22T00:08:57.221Z,6.88
2022-08-22T00:11:46.162Z,4.80
2022-08-22T00:20:28.114Z,4.43
2022-08-22T00:23:23.246Z,4.60
2022-08-22T00:29:01.781Z,3.55
2022-08-22T00:31:45.015Z,7.00
2022-08-22T00:34:24.130Z,7.38
2022-08-22T00:37:32.690Z,5.72
2022-08-22T00:40:19.440Z,5.15
2022-08-22T00:43:11.057Z,3.22
2022-08-22T00:45:56.509Z,3.65
2022-08-22T00:49:01.096Z,3.53
2022-08-22T00:51:46.154Z,6.93
2022-08-22T00:54:47.486Z,5.60
2022-08-22T00:57:24.767Z,3.53
2022-08-22T01:00:22.605Z,9.20
2022-08-22T01:03:48.966Z,5.03
2022-08-22T01:06:46.003Z,5.65
2022-08-22T01:09:54.914Z,8.13
2022-08-22T01:12:50.241Z,4.05
2022-08-22T01:15:29.392Z,5.00
2022-08-22T01:18:16.635Z,4.72
2022-08-22T01:27:06.105Z,3.97
2022-08-22T01:29:51.384Z,3.60
2022-08-22T01:33:02.423Z,7.43
2022-08-22T01:35:47.911Z,5.85
2022-08-22T01:38:37.097Z,6.65
2022-08-22T01:41:40.194Z,3.92
2022-08-22T01:44:28.209Z,4.35
2022-08-22T01:47:12.633Z,6.47
2022-08-22T01:52:31.223Z,3.50
2022-08-22T01:55:12.301Z,4.93
2022-08-22T01:57:59.036Z,3.17
2022-08-22T02:04:01.929Z,5.80
2022-08-22T02:06:59.351Z,5.47
2022-08-22T02:10:10.467Z,4.43
2022-08-22T02:13:08.715Z,3.35
2022-08-22T02:15:43.991Z,5.45
2022-08-22T02:18:23.601Z,5.07
2022-08-22T02:21:22.772Z,5.65
2022-08-22T02:24:01.145Z,4.57
2022-08-22T02:27:17.885Z,3.55
2022-08-22T02:32:40.650Z,7.32
2022-08-22T02:35:23.042Z,5.03
2022-08-22T02:38:06.635Z,4.68
2022-08-22T02:41:05.236Z,3.42
2022-08-22T02:43:53.405Z,4.15
2022-08-22T02:46:34.010Z,4.35
2022-08-22T02:52:27.013Z,5.57
2022-08-22T02:55:07.239Z,3.45
2022-08-22T02:57:45.570Z,3.63
2022-08-22T03:00:31.255Z,4.50
2022-08-22T03:03:02.856Z,4.43
2022-08-22T03:05:39.077Z,4.13
2022-08-22T03:08:25.489Z,5.25
2022-08-22T03:11:28.780Z,5.90
2022-08-22T03:14:25.598Z,3.15
2022-08-22T03:17:17.426Z,5.10
2022-08-22T03:20:14.821Z,3.47
2022-08-22T03:23:00.698Z,6.97
2022-08-22T03:31:35.597Z,4.05
2022-08-22T03:34:26.465Z,5.60
2022-08-22T03:37:12.106Z,5.32
2022-08-22T03:43:58.147Z,4.80
2022-08-22T03:47:00.870Z,5.38
2022-08-22T03:49:46.080Z,3.55
2022-08-22T03:52:29.973Z,3.88
2022-08-22T03:55:26.685Z,6.00
2022-08-22T03:58:19.141Z,3.08
2022-08-22T04:01:35.369Z,3.95
2022-08-22T04:04:11.908Z,2.75
2022-08-22T04:13:15.083Z,4.50
2022-08-22T04:15:58.765Z,6.05
2022-08-22T04:19:21.871Z,3.20
2022-08-22T04:22:27.843Z,5.30
2022-08-22T04:25:25.739Z,3.97
2022-08-22T04:28:14.010Z,4.38
2022-08-22T04:31:11.862Z,3.63
2022-08-22T04:34:00.718Z,4.25
2022-08-22T04:36:44.020Z,3.38
2022-08-22T04:39:34.867Z,2.83
2022-08-22T04:42:32.322Z,4.88
2022-08-22T04:45:18.295Z,3.92
2022-08-22T04:47:53.992Z,4.80
2022-08-22T04:50:27.096Z,2.85
2022-08-22T04:53:43.493Z,3.47
2022-08-22T04:56:45.354Z,2.97
2022-08-22T04:59:18.484Z,4.88
2022-08-22T05:01:57.219Z,4.50
2022-08-22T05:04:45.473Z,4.72
2022-08-22T05:07:29.177Z,2.25
2022-08-22T05:10:19.126Z,2.75
2022-08-22T05:13:03.662Z,2.65
2022-08-22T05:15:38.261Z,4.35
2022-08-22T05:18:12.509Z,4.10
2022-08-22T05:20:41.795Z,3.55
2022-08-22T05:23:25.660Z,3.00
2022-08-22T05:26:01.266Z,3.67
2022-08-22T05:28:53.519Z,2.83
2022-08-22T05:31:40.443Z,2.05
2022-08-22T05:34:23.194Z,2.47
2022-08-22T05:37:08.327Z,5.10
2022-08-22T05:39:40.819Z,3.67
2022-08-22T05:42:19.026Z,3.08
2022-08-22T05:44:46.491Z,2.47
2022-08-22T05:47:24.358Z,4.43
2022-08-22T05:50:27.364Z,2.03
2022-08-22T05:53:02.563Z,2.55
2022-08-22T05:55:52.566Z,2.50
2022-08-22T05:59:02.888Z,6.95
2022-08-22T06:02:13.995Z,2.75
2022-08-22T06:04:54.800Z,3.97
2022-08-22T06:07:42.759Z,3.33
2022-08-22T06:10:42.758Z,3.22
2022-08-22T06:13:47.231Z,3.65
2022-08-22T06:16:24.709Z,3.83
2022-08-22T06:18:53.415Z,3.83
2022-08-22T06:21:38.626Z,3.33
2022-08-22T06:24:15.929Z,2.88
2022-08-22T06:26:48.691Z,3.10
2022-08-22T06:29:44.254Z,2.58
2022-08-22T06:32:58.263Z,4.38
2022-08-22T06:35:18.842Z,2.95
2022-08-22T06:37:48.914Z,4.80
2022-08-22T06:40:18.711Z,3.15
2022-08-22T06:42:50.993Z,4.07
2022-08-22T06:45:26.706Z,2.75
2022-08-22T06:48:14.076Z,5.38
2022-08-22T06:50:46.321Z,3.60
2022-08-22T06:53:38.364Z,3.60
2022-08-22T06:56:17.932Z,3.30
2022-08-22T06:58:48.214Z,5.53
2022-08-22T07:01:57.641Z,4.20
2022-08-22T07:04:27.559Z,3.50
2022-08-22T07:06:57.718Z,3.40
2022-08-22T07:09:30.023Z,5.88
2022-08-22T07:12:01.545Z,4.45
2022-08-22T07:14:50.539Z,3.33
2022-08-22T07:17:25.756Z,5.78
2022-08-22T07:20:24.070Z,5.35
2022-08-22T07:23:09.531Z,6.07
2022-08-22T07:26:09.375Z,3.38
2022-08-22T07:28:58.610Z,3.83
2022-08-22T07:31:54.166Z,5.57
2022-08-22T07:34:53.564Z,3.58
2022-08-22T07:38:02.232Z,4.35
2022-08-22T07:41:01.585Z,3.90
2022-08-22T07:43:36.392Z,4.53
2022-08-22T07:46:12.776Z,4.75
2022-08-22T07:52:01.110Z,5.05
2022-08-22T07:57:51.584Z,5.63
2022-08-22T08:00:21.942Z,5.78
2022-08-22T08:03:02.303Z,4.82
2022-08-22T08:05:33.104Z,5.65
2022-08-22T08:08:12.270Z,6.07
2022-08-22T08:10:43.542Z,6.28
2022-08-22T08:13:22.342Z,4.13
2022-08-22T08:15:50.778Z,4.35
2022-08-22T08:18:23.592Z,4.35
2022-08-22T08:20:58.955Z,4.78
2022-08-22T08:23:39.024Z,4.28
2022-08-22T08:26:23.573Z,4.78
2022-08-22T08:28:56.528Z,4.55
2022-08-22T08:31:43.396Z,7.00
2022-08-22T08:34:20.537Z,6.05
2022-08-22T08:37:07.379Z,6.75
2022-08-22T08:39:49.977Z,4.95
2022-08-22T08:43:31.341Z,5.93
2022-08-22T08:46:38.625Z,6.63
2022-08-22T08:49:38.751Z,6.97
2022-08-22T08:53:25.397Z,6.18
2022-08-22T08:56:06.642Z,6.25
2022-08-22T08:58:45.881Z,6.68
2022-08-22T09:01:41.601Z,6.50
2022-08-22T09:04:56.215Z,7.05
2022-08-22T09:07:55.268Z,8.15
2022-08-22T09:10:57.201Z,6.38
2022-08-22T09:13:40.669Z,8.50
2022-08-22T09:16:48.156Z,5.63
2022-08-22T09:22:50.611Z,5.38
2022-08-22T09:25:38.615Z,5.60
2022-08-22T09:28:23.978Z,6.63
2022-08-22T09:31:44.759Z,5.70
2022-08-22T09:34:41.602Z,6.20
2022-08-22T09:37:30.008Z,7.07
2022-08-22T09:40:29.369Z,8.02
2022-08-22T09:43:45.068Z,7.50
2022-08-22T09:46:31.486Z,8.32
2022-08-22T09:52:55.653Z,6.10
2022-08-22T09:55:41.724Z,10.38
2022-08-22T09:58:11.831Z,6.00
2022-08-22T10:00:47.599Z,5.90
2022-08-22T10:04:04.540Z,10.77
2022-08-22T10:06:46.516Z,6.53
2022-08-22T10:09:31.289Z,6.50
2022-08-22T10:12:12.801Z,6.32
2022-08-22T10:15:16.196Z,5.70
2022-08-22T10:18:19.206Z,5.27
2022-08-22T10:21:09.676Z,6.82
2022-08-22T10:24:01.540Z,7.00
2022-08-22T10:27:07.980Z,6.88
2022-08-22T10:30:01.326Z,6.63
2022-08-22T10:33:08.322Z,5.90
2022-08-22T10:36:05.009Z,8.38
2022-08-22T10:38:46.511Z,6.57
2022-08-22T10:41:39.131Z,7.00
2022-08-22T10:44:22.717Z,7.60
2022-08-22T10:47:01.190Z,6.65
2022-08-22T10:49:51.215Z,7.03
2022-08-22T10:52:37.278Z,10.85
2022-08-22T10:55:17.850Z,7.60
2022-08-22T10:58:05.687Z,6.38
2022-08-22T11:00:54.425Z,6.70
2022-08-22T11:04:12.781Z,8.32
2022-08-22T11:06:52.407Z,6.93
2022-08-22T11:09:43.237Z,6.70
2022-08-22T11:12:19.572Z,6.88
2022-08-22T11:15:28.439Z,6.13
2022-08-22T11:18:34.681Z,7.07
2022-08-22T11:21:18.827Z,8.57
2022-08-22T11:26:59.670Z,7.60
2022-08-22T11:29:57.846Z,7.80
2022-08-22T11:33:06.181Z,7.82
2022-08-22T11:35:49.795Z,6.55
2022-08-22T11:38:39.657Z,7.20
2022-08-22T11:41:25.630Z,8.20
2022-08-22T11:44:32.124Z,7.78
2022-08-22T11:47:09.148Z,6.88
2022-08-22T11:50:15.461Z,8.15
2022-08-22T11:53:15.125Z,6.55
2022-08-22T11:56:00.413Z,10.10
2022-08-22T11:58:57.705Z,6.93
2022-08-22T12:01:52.873Z,6.40
2022-08-22T12:04:47.439Z,6.35
2022-08-22T12:07:25.906Z,5.90
2022-08-22T12:10:19.816Z,6.88
2022-08-22T12:13:01.449Z,6.72
2022-08-22T12:15:49.010Z,8.35
2022-08-22T12:18:33.825Z,7.22
2022-08-22T12:21:13.455Z,7.45
2022-08-22T12:23:55.972Z,5.05
2022-08-22T12:26:41.589Z,5.88
2022-08-22T12:29:44.907Z,7.68
2022-08-22T12:33:00.714Z,6.50
2022-08-22T12:35:43.367Z,7.28
2022-08-22T12:38:37.839Z,5.90
2022-08-22T12:41:27.985Z,5.53
2022-08-22T12:44:22.980Z,5.55
2022-08-22T12:47:26.799Z,6.68
2022-08-22T12:50:04.429Z,5.35
2022-08-22T12:52:48.248Z,7.05
2022-08-22T12:55:15.903Z,6.60
2022-08-22T12:58:22.283Z,5.47
2022-08-22T13:00:52.518Z,4.97
2022-08-22T13:03:32.843Z,6.85
2022-08-22T13:06:07.654Z,6.30
2022-08-22T13:08:45.149Z,5.78
2022-08-22T13:11:22.662Z,5.97
2022-08-22T13:13:57.181Z,6.38
2022-08-22T13:19:07.841Z,5.10
2022-08-22T13:21:45.552Z,6.97
2022-08-22T13:24:41.108Z,5.90
2022-08-22T13:27:33.144Z,6.97
2022-08-22T13:30:15.028Z,5.82
2022-08-22T13:32:52.592Z,6.35
2022-08-22T13:36:06.666Z,6.18
2022-08-22T13:38:46.286Z,5.95
2022-08-22T13:41:24.833Z,7.35
2022-08-22T13:44:07.209Z,6.57
2022-08-22T13:46:48.192Z,6.25
2022-08-22T13:49:53.815Z,5.13
2022-08-22T13:52:44.412Z,5.55
2022-08-22T13:55:30.431Z,6.43
2022-08-22T13:58:25.993Z,5.10
2022-08-22T14:01:55.934Z,6.05
2022-08-22T14:04:36.800Z,4.60
2022-08-22T14:07:04.475Z,5.63
2022-08-22T14:10:02.637Z,5.85
2022-08-22T14:12:57.968Z,6.78
2022-08-22T14:15:45.497Z,4.18
2022-08-22T14:18:45.438Z,5.60
2022-08-22T14:21:40.742Z,5.53
2022-08-22T14:24:26.887Z,6.53
2022-08-22T14:27:08.528Z,6.88
2022-08-22T14:30:18.706Z,6.07
2022-08-22T14:32:59.652Z,5.63
2022-08-22T14:35:41.217Z,5.22
2022-08-22T14:38:29.936Z,5.53
2022-08-22T14:41:55.420Z,6.93
2022-08-22T14:44:39.104Z,4.78
2022-08-22T14:47:55.471Z,5.72
2022-08-22T14:50:49.375Z,5.68
2022-08-22T14:53:20.207Z,5.38
2022-08-22T14:56:25.550Z,6.07
2022-08-22T14:58:58.898Z,6.13
2022-08-22T15:01:33.075Z,9.70
2022-08-22T15:04:10.445Z,23.75
2022-08-22T15:07:07.536Z,20.05
2022-08-22T15:09:52.560Z,17.85
2022-08-22T15:12:32.340Z,19.90
2022-08-22T15:15:05.160Z,21.83
2022-08-22T15:17:44.745Z,18.70
2022-08-22T15:20:49.244Z,12.23
2022-08-22T15:23:24.055Z,13.60
2022-08-22T15:26:23.827Z,12.48
2022-08-22T15:29:04.413Z,12.55
2022-08-22T15:31:32.372Z,14.70
2022-08-22T15:34:19.934Z,14.15
2022-08-22T15:37:16.638Z,12.68
2022-08-22T15:40:30.569Z,11.82
2022-08-22T15:42:59.110Z,13.70
2022-08-22T15:45:34.797Z,11.00
2022-08-22T15:48:10.843Z,10.57
2022-08-22T15:50:58.706Z,9.13
2022-08-22T15:54:02.619Z,10.88
2022-08-22T15:57:25.529Z,12.30
2022-08-22T16:00:11.117Z,10.52
2022-08-22T16:03:02.006Z,10.50
2022-08-22T16:05:54.584Z,11.25
2022-08-22T16:08:49.741Z,13.90
2022-08-22T16:14:21.473Z,14.18
2022-08-22T16:17:01.184Z,13.32
2022-08-22T16:19:31.871Z,12.18
2022-08-22T16:22:01.758Z,16.98
2022-08-22T16:24:33.826Z,11.75
2022-08-22T16:27:20.192Z,17.40
2022-08-22T16:29:47.747Z,14.07
2022-08-22T16:32:28.182Z,14.77
2022-08-22T16:34:55.647Z,16.63
2022-08-22T16:37:25.976Z,16.25
2022-08-22T16:40:01.049Z,15.35
2022-08-22T16:42:42.734Z,15.35
2022-08-22T16:45:34.880Z,17.95
2022-08-22T16:48:31.267Z,14.88
2022-08-22T16:51:15.963Z,15.93
2022-08-22T16:54:12.629Z,14.20
2022-08-22T16:57:09.177Z,13.50
2022-08-22T16:59:57.703Z,14.75
2022-08-22T17:02:48.355Z,14.02
2022-08-22T17:05:41.467Z,15.35
2022-08-22T17:08:34.603Z,16.00
2022-08-22T17:11:16.611Z,14.45
2022-08-22T17:14:21.034Z,14.35
2022-08-22T17:17:00.490Z,14.85
2022-08-22T17:20:03.105Z,13.30
2022-08-22T17:22:57.989Z,14.57
2022-08-22T17:25:54.309Z,15.75
2022-08-22T17:28:56.151Z,16.58
2022-08-22T17:31:50.950Z,16.15
2022-08-22T17:34:39.638Z,16.65
2022-08-22T17:37:53.163Z,16.23
2022-08-22T17:40:58.605Z,15.95
2022-08-22T17:44:16.107Z,16.52
2022-08-22T17:47:16.219Z,15.73
2022-08-22T17:49:45.199Z,15.20
2022-08-22T17:52:28.531Z,17.20
2022-08-22T17:55:28.416Z,17.10
2022-08-22T17:58:12.783Z,17.45
2022-08-22T18:01:32.161Z,18.00
2022-08-22T18:04:08.314Z,14.77
2022-08-22T18:06:47.564Z,13.73
2022-08-22T18:09:35.633Z,13.02
2022-08-22T18:12:15.908Z,13.82
2022-08-22T18:14:55.791Z,13.73
2022-08-22T18:17:44.389Z,14.35
2022-08-22T18:20:23.138Z,15.50
2022-08-22T18:23:21.748Z,14.10
2022-08-22T18:26:27.381Z,20.70
2022-08-22T18:29:06.551Z,17.63
2022-08-22T18:32:08.018Z,17.02
2022-08-22T18:35:16.893Z,17.95
2022-08-22T18:37:59.491Z,17.15
2022-08-22T18:40:55.189Z,16.88
2022-08-22T18:43:31.934Z,16.38
2022-08-22T18:46:04.072Z,14.18
2022-08-22T18:48:54.468Z,17.77
2022-08-22T18:51:38.858Z,17.85
2022-08-22T18:54:11.237Z,15.75
2022-08-22T18:57:42.472Z,19.27
2022-08-22T19:00:45.740Z,19.92
2022-08-22T19:03:40.983Z,17.27
2022-08-22T19:06:58.640Z,15.88
2022-08-22T19:10:20.918Z,17.75
2022-08-22T19:13:43.073Z,17.02
2022-08-22T19:16:52.209Z,21.40
2022-08-22T19:19:48.105Z,23.45
2022-08-22T19:22:22.103Z,20.67
2022-08-22T19:25:28.532Z,23.40
2022-08-22T19:28:15.077Z,16.20
2022-08-22T19:31:16.556Z,17.48
2022-08-22T19:34:09.223Z,16.90
2022-08-22T19:36:36.676Z,16.90
2022-08-22T19:39:10.557Z,17.73
2022-08-22T19:41:58.129Z,16.17
2022-08-22T19:44:35.163Z,16.60
2022-08-22T19:47:20.892Z,25.70
2022-08-22T19:50:08.088Z,19.42
2022-08-22T19:52:51.307Z,18.35
2022-08-22T19:55:45.479Z,14.48
2022-08-22T19:58:32.554Z,15.48
2022-08-22T20:01:32.071Z,15.57
2022-08-22T20:04:20.729Z,17.48
2022-08-22T20:07:45.323Z,19.88
2022-08-22T20:10:26.029Z,17.90
2022-08-22T20:13:18.883Z,19.65
2022-08-22T20:16:19.776Z,16.52
2022-08-22T20:19:06.015Z,15.35
2022-08-22T20:22:02.080Z,15.75
2022-08-22T20:25:02.662Z,19.20
2022-08-22T20:27:36.485Z,20.45
2022-08-22T20:30:15.528Z,18.90
2022-08-22T20:33:02.186Z,18.00
2022-08-22T20:35:45.411Z,17.10
2022-08-22T20:38:20.266Z,14.75
2022-08-22T20:41:13.553Z,14.90
2022-08-22T20:43:57.854Z,17.67
2022-08-22T20:47:12.938Z,17.25
2022-08-22T20:50:02.164Z,14.85
2022-08-22T20:52:51.805Z,14.40
2022-08-22T20:55:31.835Z,21.17
2022-08-22T20:58:25.161Z,17.98
2022-08-22T21:00:57.385Z,15.98
2022-08-22T21:03:46.824Z,20.00
2022-08-22T21:06:24.393Z,19.83
2022-08-22T21:12:18.241Z,17.90
2022-08-22T21:14:47.435Z,16.35
2022-08-22T21:17:39.086Z,16.40
2022-08-22T21:23:14.454Z,15.90
2022-08-22T21:25:52.042Z,16.75
2022-08-22T21:28:53.518Z,18.00
2022-08-22T21:31:29.320Z,20.88
2022-08-22T21:33:57.405Z,18.30
2022-08-22T21:36:30.366Z,17.25
2022-08-22T21:39:27.499Z,21.48
2022-08-22T21:42:00.683Z,18.30
2022-08-22T21:44:43.312Z,19.50
2022-08-22T21:47:31.569Z,19.50
2022-08-22T21:50:19.267Z,19.90
2022-08-22T21:52:55.413Z,17.25
2022-08-22T21:55:34.469Z,23.05
2022-08-22T21:58:35.931Z,18.70
2022-08-22T22:01:28.677Z,19.48
2022-08-22T22:03:58.877Z,21.35
2022-08-22T22:06:26.942Z,16.65
2022-08-22T22:08:55.276Z,17.55
2022-08-22T22:11:22.753Z,16.13
2022-08-22T22:13:50.060Z,15.75
2022-08-22T22:16:29.906Z,19.25
2022-08-22T22:18:57.333Z,16.17
2022-08-22T22:21:24.685Z,16.90
2022-08-22T22:23:52.596Z,15.32
2022-08-22T22:26:21.580Z,15.68
2022-08-22T22:28:50.344Z,20.08
2022-08-22T22:31:19.590Z,16.27
2022-08-22T22:33:47.093Z,15.48
2022-08-22T22:36:23.768Z,13.63
2022-08-22T22:38:52.228Z,12.15
2022-08-22T22:41:25.332Z,12.82
2022-08-22T22:43:54.657Z,14.43
2022-08-22T22:46:23.562Z,13.70
2022-08-22T22:48:51.187Z,13.13
2022-08-22T22:51:18.832Z,12.82
2022-08-22T22:53:46.789Z,13.23
2022-08-22T22:56:21.516Z,11.90
2022-08-22T22:58:49.890Z,12.85
2022-08-22T23:01:27.061Z,11.90
2022-08-22T23:03:57.592Z,13.57
2022-08-22T23:06:28.857Z,16.17
2022-08-22T23:08:57.867Z,15.65
2022-08-22T23:11:30.841Z,15.65
2022-08-22T23:13:58.142Z,16.98
2022-08-22T23:16:28.803Z,13.60
2022-08-22T23:18:56.829Z,11.65
2022-08-22T23:21:29.665Z,14.90
2022-08-22T23:26:29.050Z,12.40
2022-08-22T23:28:59.930Z,11.75
2022-08-22T23:37:35.919Z,10.77
2022-08-22T23:40:07.657Z,13.75
2022-08-22T23:42:35.225Z,12.88
2022-08-22T23:45:02.582Z,15.50
2022-08-22T23:47:30.033Z,14.13
2022-08-22T23:49:57.425Z,15.13
2022-08-22T23:52:25.355Z,14.00
2022-08-22T23:54:55.614Z,11.90
2022-08-22T23:57:27.722Z,13.32
2022-08-22T23:59:57.709Z,12.40
